Time;durP1;ratioP1;P1;durP2;ratioP2;P2;SDS_P1;SDS_P2;PMS_P1;PMS_P2;Temp;Humidity;BMP_temperature;BMP_pressure;BME280_temperature;BME280_humidity;BME280_pressure;Samples;Min_cycle;Max_cycle;Signal;HPM_P1;HPM_P2
2022/06/26 00:02:07;;;;;;;3.50;2.87;;;;;;;;;;5095195;28;20478;-72
2022/06/26 00:04:35;;;;;;;3.20;2.90;;;;;;;;;;5098010;28;20944;-72
2022/06/26 00:07:03;;;;;;;3.00;2.70;;;;;;;;;;5097323;28;20489;-72
2022/06/26 00:09:30;;;;;;;2.70;2.50;;;;;;;;;;5097608;28;20507;-72
2022/06/26 00:11:59;;;;;;;6.90;3.10;;;;;;;;;;5097186;28;20463;-72
2022/06/26 00:14:26;;;;;;;3.90;3.10;;;;;;;;;;5097188;28;20466;-72
2022/06/26 00:16:53;;;;;;;4.57;3.17;;;;;;;;;;5097499;28;20451;-72
2022/06/26 00:19:20;;;;;;;3.60;3.30;;;;;;;;;;5097112;28;20454;-72
2022/06/26 00:21:47;;;;;;;3.20;3.00;;;;;;;;;;5097300;28;20470;-72
2022/06/26 00:24:15;;;;;;;3.07;2.63;;;;;;;;;;5097166;28;20971;-72
2022/06/26 00:26:42;;;;;;;3.47;2.70;;;;;;;;;;5096916;28;20497;-72
2022/06/26 00:29:10;;;;;;;4.03;2.93;;;;;;;;;;5096890;28;20454;-72
2022/06/26 00:31:37;;;;;;;3.07;2.77;;;;;;;;;;5097118;28;20471;-72
2022/06/26 00:34:04;;;;;;;4.83;3.27;;;;;;;;;;5096817;28;20451;-72
2022/06/26 00:36:31;;;;;;;4.40;3.07;;;;;;;;;;5097082;28;20814;-72
2022/06/26 00:38:59;;;;;;;3.20;2.90;;;;;;;;;;5097055;28;20499;-72
2022/06/26 00:41:26;;;;;;;6.63;3.20;;;;;;;;;;5096962;28;20475;-72
2022/06/26 00:43:53;;;;;;;2.80;2.50;;;;;;;;;;5096944;28;20509;-72
2022/06/26 00:46:24;;;;;;;5.57;3.10;;;;;;;;;;5096924;28;20455;-72
2022/06/26 00:48:51;;;;;;;6.90;2.90;;;;;;;;;;5096879;28;20484;-72
2022/06/26 00:51:18;;;;;;;2.73;2.53;;;;;;;;;;5096724;28;20477;-72
2022/06/26 00:53:45;;;;;;;3.90;3.50;;;;;;;;;;5096460;28;20448;-72
2022/06/26 00:56:13;;;;;;;5.80;3.00;;;;;;;;;;5096478;28;20438;-72
2022/06/26 00:58:40;;;;;;;7.60;3.20;;;;;;;;;;5096933;28;20438;-72
2022/06/26 01:01:08;;;;;;;3.30;3.00;;;;;;;;;;5096553;28;20466;-72
2022/06/26 01:03:36;;;;;;;3.67;3.33;;;;;;;;;;5096498;28;20453;-72
2022/06/26 01:06:05;;;;;;;5.23;3.47;;;;;;;;;;5096502;28;20468;-72
2022/06/26 01:08:32;;;;;;;4.57;2.63;;;;;;;;;;5096654;28;20493;-72
2022/06/26 01:11:00;;;;;;;7.57;3.60;;;;;;;;;;5096012;28;20481;-72
2022/06/26 01:13:27;;;;;;;4.80;3.37;;;;;;;;;;5094975;28;20451;-72
2022/06/26 01:15:54;;;;;;;3.57;3.27;;;;;;;;;;5096291;28;20568;-72
2022/06/26 01:18:22;;;;;;;4.10;3.70;;;;;;;;;;5096324;28;20859;-72
2022/06/26 01:20:54;;;;;;;4.23;3.80;;;;;;;;;;5096138;28;20469;-71
2022/06/26 01:23:23;;;;;;;4.23;3.33;;;;;;;;;;5095943;28;20442;-71
2022/06/26 01:25:50;;;;;;;5.30;3.63;;;;;;;;;;5096182;28;20901;-72
2022/06/26 01:28:18;;;;;;;5.60;3.23;;;;;;;;;;5095727;28;20486;-71
2022/06/26 01:30:45;;;;;;;6.77;3.77;;;;;;;;;;5095908;28;21006;-71
2022/06/26 01:33:12;;;;;;;5.23;4.67;;;;;;;;;;5096020;28;20454;-71
2022/06/26 01:35:39;;;;;;;6.30;5.07;;;;;;;;;;5096009;28;20458;-71
2022/06/26 01:38:13;;;;;;;6.37;5.77;;;;;;;;;;5095893;28;20451;-71
2022/06/26 01:40:42;;;;;;;7.83;4.53;;;;;;;;;;5095822;28;20471;-71
2022/06/26 01:43:09;;;;;;;4.43;4.00;;;;;;;;;;5095447;28;20443;-71
2022/06/26 01:45:42;;;;;;;5.40;3.73;;;;;;;;;;5095488;28;20511;-71
2022/06/26 01:48:09;;;;;;;7.17;4.67;;;;;;;;;;5095685;28;20516;-71
2022/06/26 01:50:36;;;;;;;5.33;4.00;;;;;;;;;;5095599;28;20904;-71
2022/06/26 01:53:03;;;;;;;5.23;3.67;;;;;;;;;;5095647;28;20442;-71
2022/06/26 01:55:31;;;;;;;4.23;3.83;;;;;;;;;;5095546;28;20442;-71
2022/06/26 01:58:01;;;;;;;4.87;4.37;;;;;;;;;;5095526;28;20443;-71
2022/06/26 02:00:28;;;;;;;6.00;5.40;;;;;;;;;;5095405;28;20492;-71
2022/06/26 02:02:56;;;;;;;5.90;4.83;;;;;;;;;;5095497;28;20451;-71
2022/06/26 02:05:23;;;;;;;4.83;4.40;;;;;;;;;;5095287;28;20503;-71
2022/06/26 02:07:50;;;;;;;5.57;4.63;;;;;;;;;;5094865;28;20527;-71
2022/06/26 02:15:49;;;;;;;8.57;5.73;;;;;;;;;;5095087;28;20530;-71
2022/06/26 02:18:16;;;;;;;9.10;5.93;;;;;;;;;;5095094;28;20940;-71
2022/06/26 02:20:43;;;;;;;7.00;4.90;;;;;;;;;;5094890;28;20470;-71
2022/06/26 02:23:11;;;;;;;8.43;6.13;;;;;;;;;;5095075;28;20450;-71
2022/06/26 02:25:38;;;;;;;8.17;6.00;;;;;;;;;;5094241;28;20496;-71
2022/06/26 02:28:07;;;;;;;4.87;4.37;;;;;;;;;;5094550;28;20486;-71
2022/06/26 02:30:34;;;;;;;4.70;4.30;;;;;;;;;;5094892;28;20440;-71
2022/06/26 02:33:01;;;;;;;8.57;4.03;;;;;;;;;;5094815;28;20454;-71
2022/06/26 02:35:29;;;;;;;3.90;3.50;;;;;;;;;;5094766;28;20821;-71
2022/06/26 02:37:57;;;;;;;4.47;4.07;;;;;;;;;;5094767;28;20954;-71
2022/06/26 02:40:24;;;;;;;3.50;3.20;;;;;;;;;;5094379;28;20438;-71
2022/06/26 02:42:52;;;;;;;4.80;3.00;;;;;;;;;;5095088;28;20455;-72
2022/06/26 02:45:20;;;;;;;3.97;3.57;;;;;;;;;;5094306;28;20446;-72
2022/06/26 02:47:48;;;;;;;5.00;3.73;;;;;;;;;;5094433;28;21051;-72
2022/06/26 02:50:15;;;;;;;5.93;4.20;;;;;;;;;;5094554;28;20447;-72
2022/06/26 02:52:43;;;;;;;4.73;4.33;;;;;;;;;;5094396;28;20980;-72
2022/06/26 02:55:11;;;;;;;4.57;4.17;;;;;;;;;;5094865;28;20431;-71
2022/06/26 02:57:38;;;;;;;5.70;5.13;;;;;;;;;;5094567;28;20928;-71
2022/06/26 03:00:05;;;;;;;4.73;4.23;;;;;;;;;;5094280;28;20451;-71
2022/06/26 03:02:34;;;;;;;5.93;5.33;;;;;;;;;;5094459;28;20478;-71
2022/06/26 03:05:01;;;;;;;7.90;6.17;;;;;;;;;;5094207;28;20453;-71
2022/06/26 03:07:28;;;;;;;8.67;5.10;;;;;;;;;;5094156;28;20482;-71
2022/06/26 03:09:55;;;;;;;9.20;5.50;;;;;;;;;;5094177;28;20967;-71
2022/06/26 03:12:22;;;;;;;6.60;5.73;;;;;;;;;;5094072;28;20830;-72
2022/06/26 03:14:49;;;;;;;9.20;5.57;;;;;;;;;;5093977;28;20455;-72
2022/06/26 03:17:17;;;;;;;11.70;5.70;;;;;;;;;;5094037;28;20457;-72
2022/06/26 03:19:45;;;;;;;9.57;6.83;;;;;;;;;;5094033;28;20940;-71
2022/06/26 03:22:12;;;;;;;62.87;43.57;;;;;;;;;;5093856;28;20478;-71
2022/06/26 03:24:39;;;;;;;7.47;6.73;;;;;;;;;;5093501;28;20463;-71
2022/06/26 03:27:07;;;;;;;8.97;6.37;;;;;;;;;;5093574;28;20454;-71
2022/06/26 03:29:34;;;;;;;6.50;5.13;;;;;;;;;;5093842;28;20470;-71
2022/06/26 03:32:01;;;;;;;5.07;4.40;;;;;;;;;;5093420;28;20475;-71
2022/06/26 03:34:28;;;;;;;4.10;3.70;;;;;;;;;;5093738;28;20454;-71
2022/06/26 03:36:57;;;;;;;3.93;3.20;;;;;;;;;;5092753;28;20457;-71
2022/06/26 03:39:24;;;;;;;3.30;3.00;;;;;;;;;;5093764;28;20446;-71
2022/06/26 03:42:00;;;;;;;4.77;2.80;;;;;;;;;;5093788;28;20812;-71
2022/06/26 03:44:27;;;;;;;8.50;6.63;;;;;;;;;;5093618;28;20438;-71
2022/06/26 03:46:54;;;;;;;2.90;2.70;;;;;;;;;;5093521;28;20817;-71
2022/06/26 03:49:21;;;;;;;3.67;2.83;;;;;;;;;;5093458;28;21014;-72
2022/06/26 03:51:49;;;;;;;2.90;2.47;;;;;;;;;;5093410;28;20474;-72
2022/06/26 03:54:18;;;;;;;3.60;2.67;;;;;;;;;;5093244;28;20461;-72
2022/06/26 03:56:45;;;;;;;3.10;2.30;;;;;;;;;;5093218;28;20557;-72
2022/06/26 03:59:12;;;;;;;4.43;3.10;;;;;;;;;;5093519;28;20813;-72
2022/06/26 04:01:39;;;;;;;5.10;2.80;;;;;;;;;;5093413;28;20471;-72
2022/06/26 04:04:06;;;;;;;7.80;3.00;;;;;;;;;;5093124;28;20451;-72
2022/06/26 04:06:33;;;;;;;5.60;3.07;;;;;;;;;;5093467;28;20813;-72
2022/06/26 04:09:00;;;;;;;3.40;2.50;;;;;;;;;;5093179;28;20490;-72
2022/06/26 04:11:29;;;;;;;3.10;2.60;;;;;;;;;;5092885;28;20475;-72
2022/06/26 04:13:56;;;;;;;9.50;2.53;;;;;;;;;;5093292;28;20450;-72
2022/06/26 04:16:23;;;;;;;4.53;3.00;;;;;;;;;;5093314;28;20458;-72
2022/06/26 04:18:50;;;;;;;3.13;2.67;;;;;;;;;;5092959;28;20446;-73
2022/06/26 04:21:17;;;;;;;4.00;2.77;;;;;;;;;;5093133;28;21010;-73
2022/06/26 04:23:44;;;;;;;3.70;3.30;;;;;;;;;;5092972;28;20978;-73
2022/06/26 04:26:11;;;;;;;3.33;2.80;;;;;;;;;;5093192;28;20434;-73
2022/06/26 04:28:40;;;;;;;4.97;3.43;;;;;;;;;;5093078;28;20848;-73
2022/06/26 04:31:07;;;;;;;6.70;4.50;;;;;;;;;;5093372;28;20478;-73
2022/06/26 04:33:34;;;;;;;5.80;4.07;;;;;;;;;;5093163;28;20955;-73
2022/06/26 04:36:01;;;;;;;6.43;4.13;;;;;;;;;;5093135;28;20457;-73
2022/06/26 04:38:29;;;;;;;4.40;3.17;;;;;;;;;;5092861;28;20450;-73
2022/06/26 04:40:56;;;;;;;4.93;4.00;;;;;;;;;;5092764;28;20474;-73
2022/06/26 04:43:23;;;;;;;7.67;5.23;;;;;;;;;;5093113;28;20784;-73
2022/06/26 04:45:51;;;;;;;10.67;5.70;;;;;;;;;;5093267;28;20454;-73
2022/06/26 04:48:18;;;;;;;9.83;6.87;;;;;;;;;;5094955;28;20486;-73
2022/06/26 04:50:46;;;;;;;12.50;5.50;;;;;;;;;;5096375;28;20474;-73
2022/06/26 04:53:13;;;;;;;5.80;4.20;;;;;;;;;;5096407;28;20453;-73
2022/06/26 04:55:40;;;;;;;5.73;3.67;;;;;;;;;;5096999;28;20457;-73
2022/06/26 04:58:07;;;;;;;3.07;2.70;;;;;;;;;;5096420;28;20445;-73
2022/06/26 05:00:34;;;;;;;3.83;2.93;;;;;;;;;;5096515;28;20461;-73
2022/06/26 05:03:02;;;;;;;5.17;3.00;;;;;;;;;;5096706;28;20457;-73
2022/06/26 05:05:30;;;;;;;4.50;2.60;;;;;;;;;;5096066;28;20469;-73
2022/06/26 05:07:57;;;;;;;8.50;4.20;;;;;;;;;;5096113;28;20450;-73
2022/06/26 05:10:24;;;;;;;5.30;3.30;;;;;;;;;;5096132;28;20927;-73
2022/06/26 05:12:51;;;;;;;4.47;3.77;;;;;;;;;;5096389;28;20454;-73
2022/06/26 05:15:19;;;;;;;4.30;3.70;;;;;;;;;;5095931;28;20464;-73
2022/06/26 05:17:46;;;;;;;3.83;2.83;;;;;;;;;;5096295;28;20481;-73
2022/06/26 05:20:15;;;;;;;3.80;3.20;;;;;;;;;;5096229;28;20447;-73
2022/06/26 05:22:42;;;;;;;6.67;2.73;;;;;;;;;;5095832;28;20473;-72
2022/06/26 05:25:09;;;;;;;7.57;3.20;;;;;;;;;;5095371;28;20978;-72
2022/06/26 05:27:36;;;;;;;5.30;3.57;;;;;;;;;;5095826;28;20457;-72
2022/06/26 05:30:04;;;;;;;4.67;3.03;;;;;;;;;;5095674;28;20492;-72
2022/06/26 05:32:31;;;;;;;7.50;3.63;;;;;;;;;;5095749;28;20470;-72
2022/06/26 05:34:58;;;;;;;4.40;3.10;;;;;;;;;;5095542;28;20450;-72
2022/06/26 05:37:26;;;;;;;8.00;2.70;;;;;;;;;;5096045;28;20910;-72
2022/06/26 05:39:53;;;;;;;5.87;3.23;;;;;;;;;;5095640;28;20457;-76
2022/06/26 05:42:20;;;;;;;4.50;3.00;;;;;;;;;;5095323;28;20481;-76
2022/06/26 05:44:48;;;;;;;4.90;2.80;;;;;;;;;;5095619;28;20442;-75
2022/06/26 05:47:15;;;;;;;3.63;3.23;;;;;;;;;;5095768;28;20450;-74
2022/06/26 05:49:42;;;;;;;5.23;2.97;;;;;;;;;;5095205;28;20486;-74
2022/06/26 05:52:09;;;;;;;3.10;2.70;;;;;;;;;;5095302;28;20839;-72
2022/06/26 05:54:37;;;;;;;4.33;2.70;;;;;;;;;;5070714;28;20458;-72
2022/06/26 05:57:05;;;;;;;3.30;3.00;;;;;;;;;;5073747;28;20447;-72
2022/06/26 05:59:32;;;;;;;3.67;2.77;;;;;;;;;;5072654;28;20451;-72
2022/06/26 06:01:59;;;;;;;3.50;2.80;;;;;;;;;;5073371;28;20478;-72
2022/06/26 06:04:26;;;;;;;3.70;2.50;;;;;;;;;;5073291;28;20455;-72
2022/06/26 06:06:53;;;;;;;3.07;2.67;;;;;;;;;;5073810;28;20971;-73
2022/06/26 06:09:20;;;;;;;3.30;2.40;;;;;;;;;;5074601;28;20494;-71
2022/06/26 06:11:49;;;;;;;3.30;2.20;;;;;;;;;;5074115;28;20999;-71
2022/06/26 06:14:16;;;;;;;2.60;2.37;;;;;;;;;;5074268;28;20447;-72
2022/06/26 06:16:43;;;;;;;2.47;2.00;;;;;;;;;;5074417;28;20454;-72
2022/06/26 06:19:10;;;;;;;2.53;2.33;;;;;;;;;;5074583;28;20454;-72
2022/06/26 06:21:37;;;;;;;3.87;2.43;;;;;;;;;;5074685;28;20574;-72
2022/06/26 06:24:04;;;;;;;2.77;2.50;;;;;;;;;;5074360;28;20224;-72
2022/06/26 06:26:31;;;;;;;3.25;2.58;;;;;;;;;;5074687;28;20215;-72
2022/06/26 06:29:00;;;;;;;6.57;2.57;;;;;;;;;;5074626;28;20690;-72
2022/06/26 06:31:27;;;;;;;6.87;2.03;;;;;;;;;;5074546;28;20610;-72
2022/06/26 06:33:54;;;;;;;2.70;2.50;;;;;;;;;;5074448;28;20220;-72
2022/06/26 06:36:21;;;;;;;2.20;2.00;;;;;;;;;;5074729;28;20213;-72
2022/06/26 06:38:48;;;;;;;3.60;2.08;;;;;;;;;;5074367;28;20205;-72
2022/06/26 06:41:15;;;;;;;2.05;1.90;;;;;;;;;;5074366;28;20228;-72
2022/06/26 06:43:42;;;;;;;2.10;1.80;;;;;;;;;;5074319;28;20208;-73
2022/06/26 06:46:11;;;;;;;6.43;1.70;;;;;;;;;;5074494;28;20216;-72
2022/06/26 06:48:38;;;;;;;1.63;1.53;;;;;;;;;;5074256;28;20221;-72
2022/06/26 06:51:06;;;;;;;2.57;2.37;;;;;;;;;;5074221;28;20236;-72
2022/06/26 06:53:33;;;;;;;2.57;1.80;;;;;;;;;;5073915;28;20209;-71
2022/06/26 06:56:00;;;;;;;1.97;1.77;;;;;;;;;;5074242;28;20220;-72
2022/06/26 06:58:27;;;;;;;2.07;1.50;;;;;;;;;;5074334;28;20573;-72
2022/06/26 07:00:54;;;;;;;2.83;1.80;;;;;;;;;;5073763;28;20602;-72
2022/06/26 07:03:23;;;;;;;1.60;1.33;;;;;;;;;;5073596;28;20462;-72
2022/06/26 07:05:50;;;;;;;1.90;1.30;;;;;;;;;;5073662;28;20827;-72
2022/06/26 07:08:17;;;;;;;1.63;1.50;;;;;;;;;;5073522;28;20451;-72
2022/06/26 07:10:44;;;;;;;2.63;1.63;;;;;;;;;;5073663;28;20720;-72
2022/06/26 07:13:11;;;;;;;1.97;1.37;;;;;;;;;;5073858;28;20571;-72
2022/06/26 07:15:38;;;;;;;3.90;1.40;;;;;;;;;;5073428;28;20447;-72
2022/06/26 07:18:06;;;;;;;1.70;1.53;;;;;;;;;;5073432;28;20454;-72
2022/06/26 07:20:34;;;;;;;1.90;1.50;;;;;;;;;;5073415;28;20447;-72
2022/06/26 07:23:01;;;;;;;2.70;1.60;;;;;;;;;;5073749;28;20828;-72
2022/06/26 07:25:28;;;;;;;2.37;1.80;;;;;;;;;;5073169;28;20455;-72
2022/06/26 07:27:55;;;;;;;1.90;1.70;;;;;;;;;;5073677;28;20815;-72
2022/06/26 07:30:22;;;;;;;1.53;1.43;;;;;;;;;;5073597;28;20482;-72
2022/06/26 07:32:49;;;;;;;1.80;1.43;;;;;;;;;;5073623;28;20920;-72
2022/06/26 07:35:17;;;;;;;1.47;1.30;;;;;;;;;;5073601;28;20209;-72
2022/06/26 07:37:46;;;;;;;2.03;1.53;;;;;;;;;;5073322;28;20209;-72
2022/06/26 07:40:13;;;;;;;1.60;1.50;;;;;;;;;;5073189;28;20208;-72
2022/06/26 07:42:41;;;;;;;1.50;1.40;;;;;;;;;;5073598;28;20570;-72
2022/06/26 07:45:08;;;;;;;2.53;1.40;;;;;;;;;;5073466;28;20720;-73
2022/06/26 07:47:35;;;;;;;2.37;1.80;;;;;;;;;;5073234;28;20212;-73
2022/06/26 07:50:02;;;;;;;2.87;1.50;;;;;;;;;;5073266;28;20240;-72
2022/06/26 07:52:30;;;;;;;1.97;1.40;;;;;;;;;;5073249;28;20481;-72
2022/06/26 07:54:59;;;;;;;1.50;1.40;;;;;;;;;;5073349;28;20893;-72
2022/06/26 07:57:26;;;;;;;3.20;1.77;;;;;;;;;;5073303;28;20452;-72
2022/06/26 07:59:54;;;;;;;2.07;1.30;;;;;;;;;;5073081;28;20212;-72
2022/06/26 08:02:21;;;;;;;1.47;1.30;;;;;;;;;;5072952;28;20228;-72
2022/06/26 08:04:48;;;;;;;1.93;1.53;;;;;;;;;;5073281;28;20212;-72
2022/06/26 08:07:15;;;;;;;2.03;1.60;;;;;;;;;;5073299;28;20455;-72
2022/06/26 08:09:42;;;;;;;1.50;1.40;;;;;;;;;;5073238;28;20487;-72
2022/06/26 08:12:11;;;;;;;1.40;1.20;;;;;;;;;;5073097;28;20535;-72
2022/06/26 08:14:38;;;;;;;1.70;1.60;;;;;;;;;;5073439;28;20890;-72
2022/06/26 08:17:05;;;;;;;1.67;1.50;;;;;;;;;;5073220;28;20451;-72
2022/06/26 08:19:32;;;;;;;1.60;1.47;;;;;;;;;;5073111;28;20943;-72
2022/06/26 08:22:02;;;;;;;2.03;1.40;;;;;;;;;;5073051;28;20693;-72
2022/06/26 08:24:29;;;;;;;2.13;1.20;;;;;;;;;;5076848;28;20240;-72
2022/06/26 08:26:56;;;;;;;1.83;1.20;;;;;;;;;;5076914;28;20457;-72
2022/06/26 08:29:25;;;;;;;1.53;1.43;;;;;;;;;;5076938;28;20573;-72
2022/06/26 08:31:52;;;;;;;1.53;1.33;;;;;;;;;;5076870;28;20466;-73
2022/06/26 08:34:19;;;;;;;2.33;1.50;;;;;;;;;;5076911;28;20529;-73
2022/06/26 08:36:47;;;;;;;1.40;1.30;;;;;;;;;;5076877;28;20462;-73
2022/06/26 08:39:14;;;;;;;1.60;1.40;;;;;;;;;;5076968;28;20455;-73
2022/06/26 08:41:42;;;;;;;2.77;1.40;;;;;;;;;;5076757;28;20482;-73
2022/06/26 08:44:10;;;;;;;1.80;1.27;;;;;;;;;;5076481;28;20466;-72
2022/06/26 08:46:39;;;;;;;2.83;1.60;;;;;;;;;;5076364;28;20451;-72
2022/06/26 08:49:09;;;;;;;2.13;1.57;;;;;;;;;;5076638;28;20446;-72
2022/06/26 08:51:37;;;;;;;2.30;1.60;;;;;;;;;;5076558;28;20467;-72
2022/06/26 08:54:05;;;;;;;1.97;1.37;;;;;;;;;;5076541;28;20478;-72
2022/06/26 08:56:32;;;;;;;2.47;1.73;;;;;;;;;;5076473;28;20901;-73
2022/06/26 08:58:59;;;;;;;1.80;1.50;;;;;;;;;;5076407;28;20451;-73
2022/06/26 09:01:26;;;;;;;1.50;1.23;;;;;;;;;;5076367;28;20987;-73
2022/06/26 09:03:55;;;;;;;1.70;1.60;;;;;;;;;;5076422;28;20797;-73
2022/06/26 09:06:22;;;;;;;1.40;1.30;;;;;;;;;;5076333;28;20458;-73
2022/06/26 09:08:49;;;;;;;3.73;1.43;;;;;;;;;;5075918;28;20454;-72
2022/06/26 09:11:17;;;;;;;3.20;1.53;;;;;;;;;;5076079;28;20486;-72
2022/06/26 09:13:45;;;;;;;2.33;1.60;;;;;;;;;;5076500;28;20462;-72
2022/06/26 09:16:13;;;;;;;2.67;1.33;;;;;;;;;;5076147;28;20451;-72
2022/06/26 09:18:41;;;;;;;1.40;1.27;;;;;;;;;;5076102;28;20841;-73
2022/06/26 09:21:11;;;;;;;1.63;1.40;;;;;;;;;;5076244;28;20980;-73
2022/06/26 09:23:39;;;;;;;2.30;1.50;;;;;;;;;;5075746;28;20470;-73
2022/06/26 09:26:06;;;;;;;1.63;1.30;;;;;;;;;;5075997;28;20455;-73
2022/06/26 09:28:34;;;;;;;1.40;1.17;;;;;;;;;;5075960;28;20447;-73
2022/06/26 09:31:01;;;;;;;2.07;1.00;;;;;;;;;;5075715;28;20491;-73
2022/06/26 09:33:29;;;;;;;3.40;1.40;;;;;;;;;;5075569;28;20844;-73
2022/06/26 09:35:57;;;;;;;2.03;1.30;;;;;;;;;;5074952;28;20837;-73
2022/06/26 09:38:26;;;;;;;1.33;1.17;;;;;;;;;;5075465;28;20452;-73
2022/06/26 09:40:55;;;;;;;2.47;1.30;;;;;;;;;;5075543;28;21004;-73
2022/06/26 09:43:29;;;;;;;1.93;1.10;;;;;;;;;;5075660;28;20474;-72
2022/06/26 09:45:57;;;;;;;6.80;1.20;;;;;;;;;;5075587;28;20455;-72
2022/06/26 09:48:24;;;;;;;1.50;1.20;;;;;;;;;;5075330;28;20824;-72
2022/06/26 09:50:52;;;;;;;1.60;1.40;;;;;;;;;;5075208;28;20995;-73
2022/06/26 09:53:19;;;;;;;1.40;1.10;;;;;;;;;;5075551;28;20959;-73
2022/06/26 09:55:48;;;;;;;2.23;1.30;;;;;;;;;;5075682;28;20435;-72
2022/06/26 09:58:16;;;;;;;1.53;1.23;;;;;;;;;;5075356;28;20955;-72
2022/06/26 10:06:25;;;;;;;1.50;1.30;;;;;;;;;;5075429;28;20972;-72
2022/06/26 10:06:28;;;;;;;1.30;1.00;;;;;;;;;;5075179;28;20403;-72
2022/06/26 10:08:56;;;;;;;3.80;1.23;;;;;;;;;;5075105;28;20428;-72
2022/06/26 10:11:28;;;;;;;1.70;1.10;;;;;;;;;;5074884;28;20988;-72
2022/06/26 10:13:57;;;;;;;2.20;1.10;;;;;;;;;;5075060;28;20436;-72
2022/06/26 10:16:30;;;;;;;1.37;1.13;;;;;;;;;;5075044;28;20447;-72
2022/06/26 10:19:18;;;;;;;1.57;1.30;;;;;;;;;;5074998;28;20897;-72
2022/06/26 10:21:47;;;;;;;3.50;1.23;;;;;;;;;;5069931;28;20476;-72
2022/06/26 10:24:15;;;;;;;1.40;1.30;;;;;;;;;;5074433;28;20460;-72
2022/06/26 10:26:51;;;;;;;1.60;1.30;;;;;;;;;;5074746;28;20455;-73
2022/06/26 10:29:18;;;;;;;1.80;1.03;;;;;;;;;;5074485;28;20439;-73
2022/06/26 10:31:47;;;;;;;1.57;1.20;;;;;;;;;;5074584;28;20514;-73
2022/06/26 10:34:16;;;;;;;1.60;1.10;;;;;;;;;;5074486;28;20929;-73
2022/06/26 10:36:43;;;;;;;1.40;1.23;;;;;;;;;;5074313;28;20451;-73
2022/06/26 10:39:10;;;;;;;1.30;1.10;;;;;;;;;;5074339;28;20492;-73
2022/06/26 10:44:34;;;;;;;1.80;1.17;;;;;;;;;;5074292;28;20533;-72
2022/06/26 10:47:01;;;;;;;3.33;1.23;;;;;;;;;;5074114;28;20431;-72
2022/06/26 10:49:28;;;;;;;8.43;1.40;;;;;;;;;;5074319;28;20542;-72
2022/06/26 10:51:56;;;;;;;1.40;1.30;;;;;;;;;;5074092;28;21012;-73
2022/06/26 10:54:24;;;;;;;1.30;1.20;;;;;;;;;;5074264;28;20447;-73
2022/06/26 10:57:08;;;;;;;1.70;1.20;;;;;;;;;;5074277;28;20447;-72
2022/06/26 10:59:40;;;;;;;1.47;1.17;;;;;;;;;;5074213;28;20859;-73
2022/06/26 11:02:07;;;;;;;1.70;1.40;;;;;;;;;;5073718;28;20467;-73
2022/06/26 11:04:44;;;;;;;2.00;1.17;;;;;;;;;;5074059;28;20820;-73
2022/06/26 11:07:14;;;;;;;1.40;1.10;;;;;;;;;;5074096;28;20439;-73
2022/06/26 11:09:41;;;;;;;1.57;1.20;;;;;;;;;;5073712;28;20436;-73
2022/06/26 11:12:09;;;;;;;1.67;1.10;;;;;;;;;;5073800;28;20846;-74
2022/06/26 11:14:37;;;;;;;1.60;1.30;;;;;;;;;;5073914;28;20547;-73
2022/06/26 11:17:05;;;;;;;2.90;1.20;;;;;;;;;;5073979;28;20436;-74
2022/06/26 11:20:46;;;;;;;1.83;1.33;;;;;;;;;;5085320;28;20822;-73
2022/06/26 11:22:20;;;;;;;1.40;1.13;;;;;;;;;;5073212;28;20837;-73
2022/06/26 11:24:49;;;;;;;1.60;1.37;;;;;;;;;;5073375;28;20459;-73
2022/06/26 11:27:16;;;;;;;1.40;1.10;;;;;;;;;;5076418;28;20829;-73
2022/06/26 11:29:47;;;;;;;1.40;1.30;;;;;;;;;;5077584;28;20508;-73
2022/06/26 11:32:15;;;;;;;2.30;1.40;;;;;;;;;;5093891;28;20473;-73
2022/06/26 11:34:49;;;;;;;1.73;1.57;;;;;;;;;;5093919;28;20455;-73
2022/06/26 11:37:16;;;;;;;1.53;1.20;;;;;;;;;;5093945;28;20919;-74
2022/06/26 11:39:43;;;;;;;1.90;1.30;;;;;;;;;;5093902;28;21014;-75
2022/06/26 11:42:18;;;;;;;1.80;1.30;;;;;;;;;;5093441;28;20470;-73
2022/06/26 11:44:50;;;;;;;5.03;1.40;;;;;;;;;;5093415;28;20507;-73
2022/06/26 11:47:17;;;;;;;1.40;1.20;;;;;;;;;;5093704;28;20454;-73
2022/06/26 11:49:44;;;;;;;1.70;1.33;;;;;;;;;;5093650;28;20462;-73
2022/06/26 11:52:12;;;;;;;1.40;1.10;;;;;;;;;;5093707;28;20867;-75
2022/06/26 11:54:39;;;;;;;1.60;1.03;;;;;;;;;;5093661;28;20446;-75
2022/06/26 11:57:06;;;;;;;1.30;1.00;;;;;;;;;;5092919;28;20458;-75
2022/06/26 11:59:33;;;;;;;1.33;1.07;;;;;;;;;;5093275;28;20457;-76
2022/06/26 12:02:02;;;;;;;2.47;1.13;;;;;;;;;;5093598;28;20466;-75
2022/06/26 12:04:29;;;;;;;2.17;1.43;;;;;;;;;;5093343;28;20455;-75
2022/06/26 12:06:56;;;;;;;4.60;1.50;;;;;;;;;;5093502;28;20455;-73
2022/06/26 12:09:26;;;;;;;1.50;1.20;;;;;;;;;;5093153;28;20453;-73
2022/06/26 12:11:54;;;;;;;1.50;1.20;;;;;;;;;;5092997;28;20486;-73
2022/06/26 12:14:25;;;;;;;2.47;1.47;;;;;;;;;;5093043;28;20549;-73
2022/06/26 12:16:53;;;;;;;1.60;1.50;;;;;;;;;;5093456;28;20488;-73
2022/06/26 12:19:22;;;;;;;2.40;1.60;;;;;;;;;;5093403;28;20947;-73
2022/06/26 12:21:50;;;;;;;1.50;1.33;;;;;;;;;;5093069;28;20481;-73
2022/06/26 12:24:18;;;;;;;2.87;1.47;;;;;;;;;;5093095;28;20466;-73
2022/06/26 12:26:45;;;;;;;3.40;1.40;;;;;;;;;;5093330;28;20457;-73
2022/06/26 12:29:13;;;;;;;3.10;1.30;;;;;;;;;;5093237;28;20541;-73
2022/06/26 12:31:40;;;;;;;3.03;1.50;;;;;;;;;;5093042;28;20999;-72
2022/06/26 12:34:08;;;;;;;2.47;1.70;;;;;;;;;;5092867;28;20458;-73
2022/06/26 12:36:37;;;;;;;1.50;1.30;;;;;;;;;;5093221;28;20450;-73
2022/06/26 12:39:05;;;;;;;2.17;1.47;;;;;;;;;;5093370;28;20454;-73
2022/06/26 12:41:33;;;;;;;2.17;1.30;;;;;;;;;;5092722;28;20470;-73
2022/06/26 12:44:02;;;;;;;3.00;1.40;;;;;;;;;;5093084;28;20439;-73
2022/06/26 12:46:30;;;;;;;2.53;1.50;;;;;;;;;;5093090;28;20564;-73
2022/06/26 12:48:58;;;;;;;1.60;1.40;;;;;;;;;;5093194;28;20454;-73
2022/06/26 12:51:26;;;;;;;3.60;1.33;;;;;;;;;;5092849;28;20881;-73
2022/06/26 12:53:55;;;;;;;1.67;1.23;;;;;;;;;;5092656;28;20451;-73
2022/06/26 12:56:23;;;;;;;2.00;1.30;;;;;;;;;;5092987;28;20786;-73
2022/06/26 12:58:50;;;;;;;3.47;1.33;;;;;;;;;;5093037;28;20477;-73
2022/06/26 13:01:17;;;;;;;1.50;1.20;;;;;;;;;;5092561;28;20470;-72
2022/06/26 13:03:44;;;;;;;2.00;1.33;;;;;;;;;;5092844;28;20446;-73
2022/06/26 13:06:12;;;;;;;1.80;1.50;;;;;;;;;;5092479;28;20457;-73
2022/06/26 13:08:40;;;;;;;2.40;1.23;;;;;;;;;;5093630;28;20821;-72
2022/06/26 13:11:23;;;;;;;1.60;1.30;;;;;;;;;;5096249;28;20490;-72
2022/06/26 13:13:51;;;;;;;1.97;1.40;;;;;;;;;;5096413;28;20966;-72
2022/06/26 13:16:18;;;;;;;2.90;1.40;;;;;;;;;;5096350;28;20555;-73
2022/06/26 13:18:45;;;;;;;1.60;1.10;;;;;;;;;;5096409;28;20467;-76
2022/06/26 13:21:12;;;;;;;1.50;1.20;;;;;;;;;;5096312;28;20478;-75
2022/06/26 13:23:39;;;;;;;1.60;1.30;;;;;;;;;;5096071;28;20467;-74
2022/06/26 13:26:08;;;;;;;1.90;1.40;;;;;;;;;;5096020;28;20458;-75
2022/06/26 13:28:36;;;;;;;1.47;1.30;;;;;;;;;;5096169;28;20813;-73
2022/06/26 13:31:04;;;;;;;1.90;1.30;;;;;;;;;;5096404;28;20483;-73
2022/06/26 13:33:31;;;;;;;2.07;1.70;;;;;;;;;;5096436;28;20451;-74
2022/06/26 13:35:58;;;;;;;2.10;1.70;;;;;;;;;;5095830;28;20455;-74
2022/06/26 13:38:25;;;;;;;1.70;1.40;;;;;;;;;;5095955;28;20462;-74
2022/06/26 13:40:52;;;;;;;2.83;1.40;;;;;;;;;;5096049;28;20951;-74
2022/06/26 13:43:21;;;;;;;1.80;1.17;;;;;;;;;;5095471;28;20454;-74
2022/06/26 13:45:48;;;;;;;5.77;1.60;;;;;;;;;;5095822;28;20811;-74
2022/06/26 13:48:15;;;;;;;1.70;1.23;;;;;;;;;;5095737;28;21007;-74
2022/06/26 13:50:42;;;;;;;1.90;1.50;;;;;;;;;;5095636;28;20481;-74
2022/06/26 13:53:10;;;;;;;1.80;1.30;;;;;;;;;;5095887;28;20936;-74
2022/06/26 13:55:37;;;;;;;1.63;1.27;;;;;;;;;;5095585;28;20477;-75
2022/06/26 13:58:04;;;;;;;1.70;1.30;;;;;;;;;;5095604;28;20497;-73
2022/06/26 14:00:33;;;;;;;2.90;1.50;;;;;;;;;;5095450;28;20454;-74
2022/06/26 14:03:00;;;;;;;1.40;1.20;;;;;;;;;;5095509;28;20451;-74
2022/06/26 14:05:27;;;;;;;1.50;1.30;;;;;;;;;;5095430;28;20451;-74
2022/06/26 14:07:55;;;;;;;1.97;1.37;;;;;;;;;;5095193;28;20538;-74
2022/06/26 14:10:22;;;;;;;1.70;1.40;;;;;;;;;;5095025;28;20446;-74
2022/06/26 14:12:49;;;;;;;1.57;1.33;;;;;;;;;;5095189;28;20486;-74
2022/06/26 14:15:16;;;;;;;1.50;1.30;;;;;;;;;;5094872;28;20447;-74
2022/06/26 14:17:44;;;;;;;1.60;1.20;;;;;;;;;;5095137;28;20818;-74
2022/06/26 14:20:12;;;;;;;1.50;1.30;;;;;;;;;;5094419;28;20451;-74
2022/06/26 14:28:09;;;;;;;1.60;1.30;;;;;;;;;;5094800;28;20426;-74
2022/06/26 14:30:36;;;;;;;1.50;1.10;;;;;;;;;;5095195;28;20431;-74
2022/06/26 14:33:04;;;;;;;1.80;1.40;;;;;;;;;;5094485;28;20490;-74
2022/06/26 14:35:32;;;;;;;1.60;1.20;;;;;;;;;;5094497;28;20453;-74
2022/06/26 14:38:00;;;;;;;1.40;1.10;;;;;;;;;;5094800;28;20936;-74
2022/06/26 14:40:27;;;;;;;1.80;1.40;;;;;;;;;;5094570;28;20469;-74
2022/06/26 14:42:54;;;;;;;2.33;1.20;;;;;;;;;;5094451;28;20449;-74
2022/06/26 14:45:21;;;;;;;1.50;1.20;;;;;;;;;;5094865;28;20478;-74
2022/06/26 14:47:48;;;;;;;1.47;1.20;;;;;;;;;;5094323;28;20450;-74
2022/06/26 14:50:16;;;;;;;3.00;1.40;;;;;;;;;;5094626;28;20447;-74
2022/06/26 14:52:44;;;;;;;2.17;1.20;;;;;;;;;;5094274;28;20501;-74
2022/06/26 14:55:11;;;;;;;1.90;1.23;;;;;;;;;;5094522;28;20434;-74
2022/06/26 14:57:39;;;;;;;2.00;1.30;;;;;;;;;;5094222;28;20894;-74
2022/06/26 15:00:06;;;;;;;1.43;1.17;;;;;;;;;;5094447;28;20935;-74
2022/06/26 15:02:34;;;;;;;1.40;1.10;;;;;;;;;;5094281;28;20971;-74
2022/06/26 15:05:01;;;;;;;1.70;1.40;;;;;;;;;;5094325;28;20463;-74